createdAt,value
2023-01-17T00:00:12.627Z,2.33
2023-01-17T00:02:39.656Z,3.50
2023-01-17T00:05:25.825Z,1.73
2023-01-17T00:08:13.511Z,3.23
2023-01-17T00:10:43.054Z,1.67
2023-01-17T00:13:09.912Z,2.33
2023-01-17T00:15:39.655Z,3.20
2023-01-17T00:18:09.240Z,2.70
2023-01-17T00:20:57.445Z,3.00
2023-01-17T00:23:44.987Z,2.43
2023-01-17T00:26:19.187Z,3.30
2023-01-17T00:28:50.271Z,2.20
2023-01-17T00:31:22.357Z,2.07
2023-01-17T00:33:51.460Z,3.70
2023-01-17T00:36:18.376Z,2.00
2023-01-17T00:38:47.499Z,1.83
2023-01-17T00:41:15.603Z,2.53
2023-01-17T00:44:01.078Z,1.70
2023-01-17T00:46:48.858Z,3.03
2023-01-17T00:49:39.438Z,2.47
2023-01-17T00:52:24.891Z,3.33
2023-01-17T00:55:12.883Z,2.40
2023-01-17T00:58:00.663Z,1.70
2023-01-17T01:00:46.416Z,2.60
2023-01-17T01:03:35.173Z,5.13
2023-01-17T01:06:24.387Z,2.70
2023-01-17T01:09:15.713Z,4.27
2023-01-17T01:12:01.289Z,6.33
2023-01-17T01:14:49.329Z,2.83
2023-01-17T01:17:36.802Z,4.87
2023-01-17T01:20:23.095Z,2.67
2023-01-17T01:23:08.776Z,3.13
2023-01-17T01:25:56.908Z,1.70
2023-01-17T01:28:44.446Z,2.53
2023-01-17T01:31:32.575Z,1.90
2023-01-17T01:34:02.444Z,1.93
2023-01-17T01:36:31.776Z,2.30
2023-01-17T01:39:03.306Z,2.83
2023-01-17T01:41:30.156Z,2.27
2023-01-17T01:44:00.074Z,2.53
2023-01-17T01:46:37.442Z,2.50
2023-01-17T01:49:25.488Z,3.97
2023-01-17T01:52:01.156Z,1.60
2023-01-17T01:54:41.989Z,1.80
2023-01-17T01:57:19.909Z,1.97
2023-01-17T01:59:58.473Z,3.57
2023-01-17T02:02:29.642Z,2.43
2023-01-17T02:04:58.865Z,1.90
2023-01-17T02:07:45.868Z,2.20
2023-01-17T02:10:17.970Z,3.27
2023-01-17T02:12:45.692Z,2.40
2023-01-17T02:15:15.062Z,3.90
2023-01-17T02:18:18.385Z,2.60
2023-01-17T02:21:22.152Z,5.10
2023-01-17T02:24:19.339Z,2.77
2023-01-17T02:27:07.265Z,3.43
2023-01-17T02:30:12.317Z,1.80
2023-01-17T02:33:20.095Z,2.33
2023-01-17T02:36:42.181Z,3.63
2023-01-17T02:39:25.629Z,2.50
2023-01-17T02:42:03.325Z,4.43
2023-01-17T02:44:32.643Z,4.00
2023-01-17T02:47:01.631Z,1.77
2023-01-17T02:49:36.992Z,1.73
2023-01-17T02:52:32.678Z,2.00
2023-01-17T02:55:29.760Z,3.87
2023-01-17T02:58:02.275Z,3.70
2023-01-17T03:00:43.087Z,2.50
2023-01-17T03:03:57.695Z,2.37
2023-01-17T03:06:44.566Z,3.03
2023-01-17T03:09:22.774Z,3.47
2023-01-17T03:11:49.865Z,2.13
2023-01-17T03:14:23.317Z,3.20
2023-01-17T03:16:50.331Z,2.63
2023-01-17T03:19:19.363Z,2.47
2023-01-17T03:21:46.183Z,3.07
2023-01-17T03:24:15.279Z,2.70
2023-01-17T03:26:44.924Z,5.37
2023-01-17T03:29:16.579Z,4.40
2023-01-17T03:31:43.475Z,3.90
2023-01-17T03:34:15.096Z,2.63
2023-01-17T03:36:42.142Z,3.07
2023-01-17T03:39:11.685Z,2.50
2023-01-17T03:41:40.784Z,1.80
2023-01-17T03:44:09.830Z,2.13
2023-01-17T03:46:38.990Z,2.57
2023-01-17T03:49:11.499Z,4.10
2023-01-17T03:51:38.287Z,2.00
2023-01-17T03:54:05.224Z,3.23
2023-01-17T03:56:36.628Z,1.60
2023-01-17T03:59:03.432Z,2.73
2023-01-17T04:01:30.339Z,4.00
2023-01-17T04:03:57.396Z,4.00
2023-01-17T04:06:33.691Z,4.73
2023-01-17T04:09:00.598Z,3.73
2023-01-17T04:11:29.937Z,1.97
2023-01-17T04:13:56.802Z,3.43
2023-01-17T04:16:30.944Z,5.03
2023-01-17T04:18:58.150Z,4.13
2023-01-17T04:21:29.858Z,2.10
2023-01-17T04:24:01.241Z,4.77
2023-01-17T04:26:28.089Z,1.80
2023-01-17T04:28:57.360Z,2.37
2023-01-17T04:31:28.648Z,3.13
2023-01-17T04:33:58.023Z,6.03
2023-01-17T04:36:27.194Z,2.53
2023-01-17T04:38:56.343Z,2.10
2023-01-17T04:41:25.721Z,2.87
2023-01-17T04:43:52.771Z,3.50
2023-01-17T04:46:22.005Z,3.33
2023-01-17T04:48:48.828Z,2.23
2023-01-17T04:51:17.896Z,2.30
2023-01-17T04:53:47.063Z,2.83
2023-01-17T04:56:16.423Z,1.70
2023-01-17T04:58:43.269Z,2.97
2023-01-17T05:01:12.748Z,3.10
2023-01-17T05:03:39.656Z,4.53
2023-01-17T05:06:06.489Z,3.10
2023-01-17T05:08:35.564Z,2.77
2023-01-17T05:11:02.409Z,3.00
2023-01-17T05:13:29.253Z,3.87
2023-01-17T05:16:00.825Z,2.30
2023-01-17T05:18:27.854Z,3.43
2023-01-17T05:21:04.380Z,3.13
2023-01-17T05:23:33.454Z,5.30
2023-01-17T05:26:00.364Z,2.83
2023-01-17T05:28:27.424Z,3.60
2023-01-17T05:30:54.286Z,4.17
2023-01-17T05:33:23.656Z,4.17
2023-01-17T05:35:52.991Z,2.67
2023-01-17T05:38:25.034Z,2.70
2023-01-17T05:40:54.243Z,3.17
2023-01-17T05:43:22.238Z,5.10
2023-01-17T05:45:54.646Z,3.07
2023-01-17T05:48:25.882Z,3.73
2023-01-17T05:50:54.867Z,3.13
2023-01-17T05:53:24.019Z,3.50
2023-01-17T05:55:51.189Z,3.17
2023-01-17T05:58:25.914Z,3.57
2023-01-17T06:00:55.192Z,3.00
2023-01-17T06:03:22.124Z,5.77
2023-01-17T06:05:53.658Z,4.07
2023-01-17T06:08:25.134Z,5.87
2023-01-17T06:10:52.045Z,3.50
2023-01-17T06:13:22.001Z,6.10
2023-01-17T06:15:51.197Z,4.00
2023-01-17T06:18:20.546Z,4.37
2023-01-17T06:20:54.381Z,4.90
2023-01-17T06:23:24.685Z,5.00
2023-01-17T06:26:04.421Z,3.43
2023-01-17T06:28:33.947Z,4.07
2023-01-17T06:31:11.672Z,3.83
2023-01-17T06:33:38.601Z,4.10
2023-01-17T06:36:08.210Z,6.43
2023-01-17T06:38:37.447Z,4.83
2023-01-17T06:41:09.812Z,5.87
2023-01-17T06:43:38.918Z,3.27
2023-01-17T06:46:08.327Z,3.10
2023-01-17T06:48:38.304Z,3.77
2023-01-17T06:51:11.824Z,5.20
2023-01-17T06:53:38.945Z,5.30
2023-01-17T06:56:09.014Z,4.43
2023-01-17T06:58:36.148Z,3.50
2023-01-17T07:01:11.014Z,4.90
2023-01-17T07:03:40.754Z,6.37
2023-01-17T07:06:09.433Z,3.63
2023-01-17T07:08:37.021Z,4.87
2023-01-17T07:11:08.037Z,7.73
2023-01-17T07:13:37.619Z,6.70
2023-01-17T07:16:08.352Z,5.30
2023-01-17T07:18:39.831Z,7.83
2023-01-17T07:21:14.298Z,6.10
2023-01-17T07:23:44.537Z,4.37
2023-01-17T07:26:17.226Z,5.47
2023-01-17T07:28:48.706Z,5.13
2023-01-17T07:31:20.241Z,5.07
2023-01-17T07:33:49.483Z,3.63
2023-01-17T07:36:18.827Z,4.43
2023-01-17T07:38:47.104Z,4.10
2023-01-17T07:41:18.192Z,6.00
2023-01-17T07:43:47.313Z,3.60
2023-01-17T07:46:17.157Z,3.90
2023-01-17T07:48:46.548Z,4.83
2023-01-17T07:51:17.729Z,5.63
2023-01-17T07:53:46.691Z,4.70
2023-01-17T07:56:16.126Z,3.93
2023-01-17T07:58:45.199Z,9.40
2023-01-17T08:01:16.296Z,4.90
2023-01-17T08:03:43.439Z,7.27
2023-01-17T08:06:24.469Z,3.47
2023-01-17T08:08:56.279Z,4.90
2023-01-17T08:11:25.667Z,3.83
2023-01-17T08:13:59.132Z,4.53
2023-01-17T08:16:30.083Z,5.57
2023-01-17T08:18:59.525Z,5.20
2023-01-17T08:21:28.751Z,4.63
2023-01-17T08:23:57.920Z,5.03
2023-01-17T08:26:27.593Z,4.70
2023-01-17T08:29:04.630Z,4.50
2023-01-17T08:31:37.688Z,4.80
2023-01-17T08:34:06.880Z,5.73
2023-01-17T08:36:33.640Z,7.07
2023-01-17T08:39:00.745Z,4.10
2023-01-17T08:41:29.720Z,5.47
2023-01-17T08:43:57.393Z,5.53
2023-01-17T08:46:24.783Z,4.67
2023-01-17T08:48:58.598Z,5.60
2023-01-17T08:51:29.855Z,5.17
2023-01-17T08:53:59.500Z,5.53
2023-01-17T08:56:31.013Z,5.93
2023-01-17T08:58:57.939Z,7.77
2023-01-17T09:01:24.946Z,8.23
2023-01-17T09:03:58.836Z,6.27
2023-01-17T09:06:27.955Z,5.27
2023-01-17T09:08:54.912Z,5.53
2023-01-17T09:11:21.881Z,9.33
2023-01-17T09:13:48.840Z,6.30
2023-01-17T09:16:15.813Z,8.27
2023-01-17T09:18:42.730Z,6.97
2023-01-17T09:21:17.390Z,6.40
2023-01-17T09:23:45.201Z,7.43
2023-01-17T09:26:43.325Z,6.20
2023-01-17T09:29:13.918Z,4.97
2023-01-17T09:31:44.608Z,5.57
2023-01-17T09:34:11.444Z,5.23
2023-01-17T09:36:38.363Z,5.63
2023-01-17T09:39:08.066Z,6.93
2023-01-17T09:42:12.006Z,3.83
2023-01-17T09:44:52.191Z,4.70
2023-01-17T09:47:41.845Z,4.40
2023-01-17T09:50:33.187Z,3.43
2023-01-17T09:53:12.583Z,5.03
2023-01-17T09:56:01.087Z,4.17
2023-01-17T09:59:03.090Z,5.53
2023-01-17T10:02:03.750Z,4.60
2023-01-17T10:05:01.502Z,3.53
2023-01-17T10:08:04.320Z,3.97
2023-01-17T10:11:07.362Z,2.70
2023-01-17T10:14:11.234Z,3.60
2023-01-17T10:17:24.598Z,4.87
2023-01-17T10:20:12.129Z,3.47
2023-01-17T10:22:51.189Z,5.90
2023-01-17T10:25:49.837Z,4.03
2023-01-17T10:28:33.691Z,4.80
2023-01-17T10:31:19.928Z,5.13
2023-01-17T10:33:57.610Z,5.90
2023-01-17T10:36:29.379Z,5.47
2023-01-17T10:39:04.824Z,2.40
2023-01-17T10:41:38.124Z,5.27
2023-01-17T10:44:15.170Z,2.00
2023-01-17T10:46:52.778Z,2.87
2023-01-17T10:49:26.741Z,5.60
2023-01-17T10:52:53.372Z,3.93
2023-01-17T10:55:54.110Z,3.43
2023-01-17T10:58:24.785Z,3.73
2023-01-17T11:01:03.409Z,4.73
2023-01-17T11:03:33.252Z,3.57
2023-01-17T11:06:24.187Z,2.87
2023-01-17T11:09:01.040Z,7.10
2023-01-17T11:11:36.074Z,6.00
2023-01-17T11:14:19.575Z,3.27
2023-01-17T11:17:13.445Z,2.53
2023-01-17T11:19:41.223Z,2.63
2023-01-17T11:22:15.818Z,3.57
2023-01-17T11:24:54.798Z,6.13
2023-01-17T11:27:25.709Z,5.00
2023-01-17T11:30:09.120Z,4.07
2023-01-17T11:32:52.638Z,2.10
2023-01-17T11:35:34.861Z,2.97
2023-01-17T11:38:24.361Z,5.43
2023-01-17T11:41:15.339Z,2.60
2023-01-17T11:43:59.808Z,3.77
2023-01-17T11:46:32.201Z,2.97
2023-01-17T11:49:01.039Z,3.07
2023-01-17T11:51:38.867Z,4.87
2023-01-17T11:54:26.768Z,4.17
2023-01-17T11:57:01.292Z,2.97
2023-01-17T11:59:43.880Z,2.23
2023-01-17T12:02:19.497Z,2.00
2023-01-17T12:05:01.292Z,2.43
2023-01-17T12:08:07.181Z,1.53
2023-01-17T12:11:07.655Z,1.43
2023-01-17T12:14:02.948Z,1.50
2023-01-17T12:17:01.087Z,2.07
2023-01-17T12:19:54.192Z,1.70
2023-01-17T12:23:04.291Z,2.50
2023-01-17T12:26:03.888Z,2.60
2023-01-17T12:28:44.530Z,2.83
2023-01-17T12:31:48.268Z,1.97
2023-01-17T12:34:40.133Z,2.70
2023-01-17T12:37:25.905Z,2.07
2023-01-17T12:40:02.639Z,2.77
2023-01-17T12:42:40.580Z,2.17
2023-01-17T12:45:32.724Z,3.17
2023-01-17T12:48:14.631Z,3.67
2023-01-17T12:50:50.726Z,2.60
2023-01-17T12:53:48.795Z,2.23
2023-01-17T12:56:36.136Z,2.23
2023-01-17T12:59:37.661Z,3.40
2023-01-17T13:02:42.627Z,2.23
2023-01-17T13:05:23.904Z,2.40
2023-01-17T13:08:17.936Z,2.20
2023-01-17T13:11:01.970Z,2.43
2023-01-17T13:13:32.815Z,2.40
2023-01-17T13:16:15.390Z,1.40
2023-01-17T13:18:51.505Z,1.80
2023-01-17T13:21:35.513Z,1.80
2023-01-17T13:24:25.727Z,1.93
2023-01-17T13:27:20.573Z,1.47
2023-01-17T13:29:50.189Z,2.47
2023-01-17T13:32:31.831Z,2.50
2023-01-17T13:35:19.551Z,2.60
2023-01-17T13:38:02.372Z,1.93
2023-01-17T13:40:49.024Z,2.23
2023-01-17T13:44:00.375Z,2.10
2023-01-17T13:47:11.756Z,2.33
2023-01-17T13:49:49.477Z,1.77
2023-01-17T13:52:19.458Z,1.80
2023-01-17T13:54:57.146Z,2.70
2023-01-17T13:57:27.905Z,1.73
2023-01-17T13:59:58.777Z,1.90
2023-01-17T14:02:31.796Z,2.03
2023-01-17T14:05:21.155Z,2.23
2023-01-17T14:07:52.346Z,1.83
2023-01-17T14:10:41.477Z,2.13
2023-01-17T14:13:35.916Z,2.10
2023-01-17T14:16:24.181Z,2.27
2023-01-17T14:18:54.998Z,2.83
2023-01-17T14:21:31.554Z,1.50
2023-01-17T14:24:10.389Z,2.10
2023-01-17T14:27:14.900Z,1.83
2023-01-17T14:30:01.568Z,3.07
2023-01-17T14:32:36.989Z,4.23
2023-01-17T14:35:09.136Z,3.87
2023-01-17T14:37:43.946Z,2.77
2023-01-17T14:40:26.357Z,5.10
2023-01-17T14:43:14.468Z,10.73
2023-01-17T14:45:43.298Z,5.80
2023-01-17T14:48:25.155Z,5.97
2023-01-17T14:50:59.872Z,4.33
2023-01-17T14:53:31.913Z,3.50
2023-01-17T14:56:13.823Z,6.93
2023-01-17T14:58:41.402Z,8.77
2023-01-17T15:01:23.220Z,6.13
2023-01-17T15:03:54.570Z,2.97
2023-01-17T15:06:41.756Z,4.47
2023-01-17T15:09:18.673Z,4.63
2023-01-17T15:11:50.953Z,2.63
2023-01-17T15:14:28.021Z,2.87
2023-01-17T15:16:55.475Z,2.47
2023-01-17T15:19:25.571Z,2.20
2023-01-17T15:21:54.555Z,2.03
2023-01-17T15:24:34.464Z,2.77
2023-01-17T15:27:06.191Z,3.57
2023-01-17T15:29:39.591Z,2.30
2023-01-17T15:32:22.940Z,2.70
2023-01-17T15:34:59.262Z,2.53
2023-01-17T15:37:36.467Z,3.33
2023-01-17T15:40:17.863Z,2.63
2023-01-17T15:42:52.929Z,3.13
2023-01-17T15:45:36.026Z,2.50
2023-01-17T15:48:44.412Z,2.60
2023-01-17T15:51:13.285Z,3.47
2023-01-17T15:53:45.497Z,3.00
2023-01-17T15:56:34.050Z,4.07
2023-01-17T15:59:29.746Z,4.00
2023-01-17T16:01:59.284Z,4.43
2023-01-17T16:04:37.049Z,4.60
2023-01-17T16:07:21.864Z,4.67
2023-01-17T16:09:51.852Z,3.90
2023-01-17T16:12:22.848Z,4.83
2023-01-17T16:15:10.452Z,3.50
2023-01-17T16:17:49.470Z,4.77
2023-01-17T16:20:36.680Z,4.20
2023-01-17T16:23:06.216Z,5.73
2023-01-17T16:25:38.284Z,4.07
2023-01-17T16:28:06.693Z,4.93
2023-01-17T16:30:34.063Z,5.33
2023-01-17T16:33:02.960Z,4.00
2023-01-17T16:35:33.837Z,3.43
2023-01-17T16:38:06.868Z,4.77
2023-01-17T16:40:47.989Z,5.07
2023-01-17T16:43:20.494Z,6.93
2023-01-17T16:45:55.873Z,7.57
2023-01-17T16:48:25.665Z,3.93
2023-01-17T16:50:57.819Z,4.07
2023-01-17T16:53:28.052Z,3.30
2023-01-17T16:55:59.277Z,3.17
2023-01-17T16:58:30.728Z,5.20
2023-01-17T17:00:58.322Z,3.97
2023-01-17T17:03:27.548Z,3.77
2023-01-17T17:06:02.949Z,4.13
2023-01-17T17:08:33.796Z,4.80
2023-01-17T17:11:19.816Z,4.20
2023-01-17T17:13:51.678Z,4.17
2023-01-17T17:16:23.799Z,3.50
2023-01-17T17:19:00.518Z,5.20
2023-01-17T17:21:29.863Z,4.53
2023-01-17T17:24:02.164Z,4.77
2023-01-17T17:26:40.792Z,7.47
2023-01-17T17:29:13.563Z,5.33
2023-01-17T17:31:44.690Z,8.30
2023-01-17T17:34:18.253Z,8.47
2023-01-17T17:36:47.604Z,8.30
2023-01-17T17:39:15.587Z,5.90
2023-01-17T17:41:48.966Z,5.63
2023-01-17T17:44:20.384Z,7.03
2023-01-17T17:46:49.241Z,8.17
2023-01-17T17:49:18.298Z,5.97
2023-01-17T17:51:49.674Z,5.43
2023-01-17T17:54:22.183Z,7.30
2023-01-17T17:56:51.611Z,8.37
2023-01-17T17:59:20.867Z,6.30
2023-01-17T18:01:50.320Z,8.13
2023-01-17T18:04:22.364Z,6.37
2023-01-17T18:06:49.261Z,7.37
2023-01-17T18:09:18.643Z,12.77
2023-01-17T18:11:50.173Z,8.23
2023-01-17T18:14:22.042Z,8.87
2023-01-17T18:16:51.725Z,9.87
2023-01-17T18:19:26.519Z,6.43
2023-01-17T18:21:55.984Z,6.13
2023-01-17T18:24:25.165Z,7.67
2023-01-17T18:26:57.555Z,8.40
2023-01-17T18:29:31.039Z,9.67
2023-01-17T18:32:00.039Z,8.17
2023-01-17T18:34:30.998Z,8.07
2023-01-17T18:37:04.592Z,7.27
2023-01-17T18:39:33.869Z,10.90
2023-01-17T18:42:05.325Z,8.67
2023-01-17T18:44:34.431Z,9.97
2023-01-17T18:47:04.629Z,7.43
2023-01-17T18:49:35.215Z,9.03
2023-01-17T18:52:07.989Z,9.13
2023-01-17T18:54:39.423Z,7.07
2023-01-17T18:57:08.606Z,8.00
2023-01-17T18:59:35.436Z,6.77
2023-01-17T19:02:09.014Z,8.83
2023-01-17T19:04:37.688Z,8.47
2023-01-17T19:07:07.256Z,7.70
2023-01-17T19:09:38.452Z,6.83
2023-01-17T19:12:05.692Z,8.30
2023-01-17T19:14:34.893Z,7.10
2023-01-17T19:17:01.871Z,8.83
2023-01-17T19:19:31.786Z,9.40
2023-01-17T19:22:03.375Z,11.03
2023-01-17T19:24:30.193Z,8.60
2023-01-17T19:26:59.151Z,8.30
2023-01-17T19:29:28.712Z,9.40
2023-01-17T19:31:55.588Z,7.07
2023-01-17T19:34:25.219Z,7.93
2023-01-17T19:36:56.790Z,8.33
2023-01-17T19:39:28.265Z,7.50
2023-01-17T19:41:57.250Z,8.33
2023-01-17T19:44:26.781Z,8.20
2023-01-17T19:46:56.731Z,7.43
2023-01-17T19:49:24.656Z,11.40
2023-01-17T19:51:52.120Z,11.60
2023-01-17T19:54:23.249Z,9.27
2023-01-17T19:56:50.085Z,8.27
2023-01-17T19:59:20.051Z,9.57
2023-01-17T20:01:47.923Z,9.33
2023-01-17T20:04:18.059Z,8.57
2023-01-17T20:06:47.997Z,7.73
2023-01-17T20:09:19.774Z,10.63
2023-01-17T20:11:49.698Z,7.00
2023-01-17T20:14:16.638Z,7.00
2023-01-17T20:16:47.434Z,8.13
2023-01-17T20:19:18.996Z,8.47
2023-01-17T20:21:48.465Z,10.83
2023-01-17T20:24:16.284Z,7.23
2023-01-17T20:26:43.994Z,8.47
2023-01-17T20:29:15.647Z,8.53
2023-01-17T20:31:46.625Z,6.53
2023-01-17T20:34:18.629Z,6.70
2023-01-17T20:36:45.851Z,5.37
2023-01-17T20:39:17.991Z,6.73
2023-01-17T20:41:46.281Z,7.10
2023-01-17T20:44:19.530Z,6.93
2023-01-17T20:46:56.594Z,5.27
2023-01-17T20:49:25.662Z,8.27
2023-01-17T20:51:54.458Z,6.17
2023-01-17T20:54:24.809Z,7.97
2023-01-17T20:56:52.040Z,7.10
2023-01-17T20:59:23.343Z,7.30
2023-01-17T21:01:54.889Z,5.63
2023-01-17T21:04:25.831Z,5.73
2023-01-17T21:06:56.246Z,6.33
2023-01-17T21:09:25.969Z,5.73
2023-01-17T21:11:54.285Z,5.67
2023-01-17T21:14:23.720Z,6.33
2023-01-17T21:16:55.177Z,6.27
2023-01-17T21:19:22.853Z,6.40
2023-01-17T21:21:52.127Z,5.13
2023-01-17T21:24:23.685Z,5.03
2023-01-17T21:26:53.550Z,6.03
2023-01-17T21:29:28.641Z,5.40
2023-01-17T21:31:56.239Z,5.03
2023-01-17T21:34:25.471Z,7.00
2023-01-17T21:36:54.544Z,5.17
2023-01-17T21:39:23.872Z,5.60
2023-01-17T21:41:50.878Z,7.33
2023-01-17T21:44:22.864Z,5.10
2023-01-17T21:46:55.119Z,7.50
2023-01-17T21:49:27.614Z,4.97
2023-01-17T21:51:56.876Z,7.50
2023-01-17T21:54:46.956Z,6.00
2023-01-17T21:57:40.187Z,5.60
2023-01-17T22:00:14.990Z,5.77
2023-01-17T22:02:47.728Z,7.93
2023-01-17T22:05:16.688Z,8.80
2023-01-17T22:08:04.873Z,6.87
2023-01-17T22:10:32.452Z,6.23
2023-01-17T22:12:59.321Z,6.73
2023-01-17T22:15:28.542Z,5.33
2023-01-17T22:17:58.391Z,5.33
2023-01-17T22:20:28.027Z,5.73
2023-01-17T22:22:59.644Z,5.47
2023-01-17T22:25:30.948Z,5.57
2023-01-17T22:28:04.971Z,5.83
2023-01-17T22:30:37.201Z,6.27
2023-01-17T22:33:06.365Z,6.00
2023-01-17T22:35:37.755Z,6.27
2023-01-17T22:38:09.377Z,5.70
2023-01-17T22:40:40.866Z,6.23
2023-01-17T22:43:11.128Z,4.80
2023-01-17T22:45:40.103Z,5.63
2023-01-17T22:48:09.824Z,6.00
2023-01-17T22:50:39.357Z,5.43
2023-01-17T22:53:10.299Z,5.57
2023-01-17T22:55:37.156Z,6.47
2023-01-17T22:58:06.778Z,5.20
2023-01-17T23:00:33.646Z,6.20
2023-01-17T23:03:00.860Z,5.83
2023-01-17T23:05:34.771Z,4.90
2023-01-17T23:08:06.082Z,5.10
2023-01-17T23:10:56.409Z,5.10
2023-01-17T23:13:25.357Z,4.83
2023-01-17T23:16:10.781Z,5.83
2023-01-17T23:19:01.091Z,4.10
2023-01-17T23:21:47.928Z,4.90
2023-01-17T23:24:19.358Z,6.27
2023-01-17T23:27:08.592Z,5.70
2023-01-17T23:29:35.396Z,5.60
2023-01-17T23:32:02.296Z,4.73
2023-01-17T23:34:33.944Z,5.47
2023-01-17T23:37:00.834Z,3.77
2023-01-17T23:39:30.368Z,4.30
2023-01-17T23:42:16.283Z,4.00
2023-01-17T23:44:45.333Z,3.73
2023-01-17T23:47:12.140Z,7.97
2023-01-17T23:49:48.399Z,5.70
2023-01-17T23:52:16.185Z,6.17
2023-01-17T23:54:50.006Z,4.67
2023-01-17T23:57:21.524Z,3.80
2023-01-17T23:59:48.412Z,5.40
